Time;durP1;ratioP1;P1;durP2;ratioP2;P2;SDS_P1;SDS_P2;PMS_P1;PMS_P2;Temp;Humidity;BMP_temperature;BMP_pressure;BME280_temperature;BME280_humidity;BME280_pressure;Samples;Min_cycle;Max_cycle;Signal;HPM_P1;HPM_P2
2022/03/12 00:00:23;;;;;;;109.63;49.00;;;;;;;-3.46;55.23;103126.65;1796831;79;21529;-90
2022/03/12 00:02:51;;;;;;;123.55;52.58;;;;;;;-3.48;55.43;103128.13;1777954;79;21548;-92
2022/03/12 00:05:18;;;;;;;127.70;53.68;;;;;;;-3.52;55.62;103130.32;1781978;79;21114;-91
2022/03/12 00:07:47;;;;;;;123.70;54.30;;;;;;;-3.54;55.83;103129.22;1778060;79;21865;-89
2022/03/12 00:10:13;;;;;;;118.87;52.08;;;;;;;-3.55;56.04;103126.45;1793123;79;22584;-90
2022/03/12 00:12:41;;;;;;;110.08;50.12;;;;;;;-3.55;56.23;103126.12;1779513;79;21101;-93
2022/03/12 00:15:10;;;;;;;98.62;47.83;;;;;;;-3.54;56.46;103130.51;1791580;78;21044;-93
2022/03/12 00:17:39;;;;;;;97.65;44.95;;;;;;;-3.53;56.76;103128.84;1769454;79;21051;-91
2022/03/12 00:20:12;;;;;;;90.47;43.00;;;;;;;-3.54;56.86;103127.94;1777424;79;21082;-93
2022/03/12 00:22:37;;;;;;;92.55;42.27;;;;;;;-3.54;56.97;103128.31;1784326;79;21774;-94
2022/03/12 00:25:07;;;;;;;99.83;45.45;;;;;;;-3.59;56.91;103130.69;1772812;79;21071;-94
2022/03/12 00:27:34;;;;;;;99.65;43.00;;;;;;;-3.63;57.06;103121.68;1757607;79;21727;-95
2022/03/12 00:30:01;;;;;;;87.53;40.92;;;;;;;-3.64;57.05;103122.44;1804276;79;21224;-94
2022/03/12 00:32:35;;;;;;;94.13;40.60;;;;;;;-3.66;57.27;103120.39;1787876;79;21314;-93
2022/03/12 00:35:00;;;;;;;88.17;39.40;;;;;;;-3.66;57.26;103112.67;1750470;81;21787;-91
2022/03/12 00:37:26;;;;;;;83.87;38.53;;;;;;;-3.65;57.44;103111.57;1729767;81;21049;-94
2022/03/12 00:39:53;;;;;;;93.95;38.02;;;;;;;-3.65;57.45;103112.86;1729612;82;21050;-94
2022/03/12 00:42:20;;;;;;;82.57;38.40;;;;;;;-3.65;57.54;103110.66;1795580;78;21424;-95
2022/03/12 00:44:47;;;;;;;82.35;37.48;;;;;;;-3.66;57.54;103107.18;1782234;79;21102;-95
2022/03/12 00:47:13;;;;;;;74.95;34.38;;;;;;;-3.67;57.41;103112.13;1791570;79;21784;-90
2022/03/12 00:49:40;;;;;;;75.90;33.95;;;;;;;-3.68;57.47;103113.77;1767426;79;21584;-95
2022/03/12 00:52:07;;;;;;;77.95;35.13;;;;;;;-3.70;57.48;103108.80;1773595;79;21034;-93
2022/03/12 00:54:36;;;;;;;77.00;33.98;;;;;;;-3.71;57.59;103103.12;1777334;79;21044;-92
2022/03/12 00:57:03;;;;;;;77.08;33.02;;;;;;;-3.73;57.48;103097.78;1790730;78;21039;-93
2022/03/12 00:59:30;;;;;;;68.85;32.83;;;;;;;-3.72;57.48;103099.98;1776584;80;21862;-95
2022/03/12 01:01:57;;;;;;;63.73;31.45;;;;;;;-3.75;57.39;103097.98;1772426;80;21063;-93
2022/03/12 01:04:25;;;;;;;70.83;32.28;;;;;;;-3.74;57.60;103102.75;1773145;79;21109;-93
2022/03/12 01:06:52;;;;;;;76.95;32.75;;;;;;;-3.79;57.27;103099.63;1772955;80;21416;-94
2022/03/12 01:09:18;;;;;;;70.10;31.73;;;;;;;-3.85;57.13;103110.83;1797108;79;21058;-92
2022/03/12 01:11:45;;;;;;;72.87;33.35;;;;;;;-3.92;57.01;103107.53;1772743;79;21833;-91
2022/03/12 01:14:12;;;;;;;78.50;36.23;;;;;;;-3.94;57.01;103105.14;1788273;79;21056;-91
2022/03/12 01:16:39;;;;;;;86.47;40.30;;;;;;;-3.96;57.18;103105.66;1804442;79;21121;-92
2022/03/12 01:19:05;;;;;;;115.85;50.00;;;;;;;-4.02;57.30;103104.55;1803947;79;21497;-91
2022/03/12 01:21:32;;;;;;;197.35;69.00;;;;;;;-4.04;57.46;103101.26;1791568;78;20999;-91
2022/03/12 01:23:58;;;;;;;194.07;71.05;;;;;;;-4.08;57.76;103106.39;1824900;77;21762;-92
2022/03/12 01:26:27;;;;;;;162.37;60.08;;;;;;;-4.10;58.06;103102.72;1786075;79;21081;-92
2022/03/12 01:28:54;;;;;;;142.77;55.65;;;;;;;-4.12;58.13;103099.05;1779483;77;21075;-91
2022/03/12 01:31:20;;;;;;;139.35;54.15;;;;;;;-4.15;58.21;103102.52;1788789;78;21389;-91
2022/03/12 01:33:50;;;;;;;146.07;56.42;;;;;;;-4.16;58.42;103097.75;1792395;79;21046;-93
2022/03/12 01:36:17;;;;;;;143.40;55.48;;;;;;;-4.17;58.50;103106.19;1784098;79;21768;-93
2022/03/12 01:38:49;;;;;;;146.22;58.55;;;;;;;-4.19;58.62;103102.51;1767965;79;21039;-92
2022/03/12 01:41:25;;;;;;;132.70;57.27;;;;;;;-4.21;58.80;103101.78;1781782;79;21075;-92
2022/03/12 01:43:53;;;;;;;129.38;54.60;;;;;;;-4.24;58.80;103103.97;1795291;79;21292;-92
2022/03/12 01:46:32;;;;;;;139.92;56.13;;;;;;;-4.31;58.90;103098.09;1802077;79;21031;-92
2022/03/12 01:48:59;;;;;;;155.52;56.15;;;;;;;-4.32;59.10;103092.75;1786696;79;21774;-93
2022/03/12 01:51:27;;;;;;;144.17;55.28;;;;;;;-4.38;59.26;103099.72;1780397;79;21047;-90
2022/03/12 01:53:54;;;;;;;139.82;54.58;;;;;;;-4.43;59.28;103098.23;1773090;79;21084;-90
2022/03/12 01:56:22;;;;;;;141.28;54.40;;;;;;;-4.48;59.32;103096.77;1780059;79;21063;-90
2022/03/12 01:58:48;;;;;;;112.95;48.23;;;;;;;-4.49;59.52;103097.11;1802048;79;21067;-90
2022/03/12 02:01:15;;;;;;;116.45;46.30;;;;;;;-4.51;59.63;103093.44;1795307;79;21752;-90
2022/03/12 02:03:42;;;;;;;119.35;47.67;;;;;;;-4.56;59.85;103086.46;1800298;79;21090;-90
2022/03/12 02:06:09;;;;;;;119.00;47.85;;;;;;;-4.59;60.10;103086.07;1780496;79;21846;-91
2022/03/12 02:08:36;;;;;;;113.65;49.70;;;;;;;-4.59;60.29;103089.02;1768983;80;21053;-91
2022/03/12 02:11:05;;;;;;;115.25;48.98;;;;;;;-4.60;60.46;103085.53;1777668;79;21110;-91
2022/03/12 02:13:34;;;;;;;111.70;48.98;;;;;;;-4.59;60.64;103077.08;1752371;79;40438;-91
2022/03/12 02:16:09;;;;;;;114.57;49.58;;;;;;;-4.59;60.82;103072.31;1772620;79;21051;-93
2022/03/12 02:18:36;;;;;;;112.83;46.73;;;;;;;-4.61;60.96;103064.78;1778742;79;21050;-93
2022/03/12 02:21:03;;;;;;;112.42;48.00;;;;;;;-4.61;61.03;103064.41;1787555;79;21086;-88
2022/03/12 02:23:32;;;;;;;105.87;47.30;;;;;;;-4.64;61.02;103065.67;1773524;79;21099;-88
2022/03/12 02:26:02;;;;;;;108.75;46.58;;;;;;;-4.69;61.09;103062.18;1766074;79;22426;-90
2022/03/12 02:28:29;;;;;;;107.30;45.33;;;;;;;-4.72;61.16;103061.80;1783636;79;21075;-90
2022/03/12 02:30:57;;;;;;;111.37;45.60;;;;;;;-4.77;61.18;103060.30;1787820;79;21071;-90
2022/03/12 02:33:28;;;;;;;101.33;47.10;;;;;;;-4.80;61.31;103056.46;1772592;79;21636;-91
2022/03/12 02:35:53;;;;;;;105.85;43.25;;;;;;;-4.80;61.45;103061.60;1790701;79;21059;-89
2022/03/12 02:38:21;;;;;;;98.95;42.50;;;;;;;-4.82;61.40;103060.46;1774741;79;21794;-87
2022/03/12 02:40:48;;;;;;;99.20;41.10;;;;;;;-4.82;61.44;103054.03;1779873;79;21047;-88
2022/03/12 02:43:26;;;;;;;94.42;39.25;;;;;;;-4.82;61.46;103050.19;1751838;79;21074;-92
2022/03/12 02:45:51;;;;;;;89.03;38.25;;;;;;;-4.83;61.47;103047.08;1756267;81;21058;-88
2022/03/12 02:48:18;;;;;;;89.37;39.27;;;;;;;-4.85;61.45;103045.59;1738152;81;21089;-90
2022/03/12 02:50:45;;;;;;;77.70;36.80;;;;;;;-4.85;61.52;103050.73;1724515;81;21784;-90
2022/03/12 02:53:16;;;;;;;93.50;36.80;;;;;;;-4.85;61.54;103054.59;1744257;81;21073;-90
2022/03/12 02:55:45;;;;;;;86.05;36.95;;;;;;;-4.85;61.64;103042.12;1697608;81;21086;-90
2022/03/12 02:58:12;;;;;;;79.40;35.28;;;;;;;-4.83;61.60;103046.70;1740491;81;21424;-88
2022/03/12 03:00:39;;;;;;;82.15;35.73;;;;;;;-4.80;61.61;103054.80;1756436;80;21093;-90
2022/03/12 03:03:06;;;;;;;72.50;33.35;;;;;;;-4.78;61.59;103053.34;1744531;81;21779;-89
2022/03/12 03:05:50;;;;;;;70.67;32.00;;;;;;;-4.78;61.56;103049.48;1749236;81;21042;-89
2022/03/12 03:08:20;;;;;;;78.50;33.70;;;;;;;-4.79;61.45;103049.29;1738708;81;21089;-90
2022/03/12 03:10:50;;;;;;;72.47;32.60;;;;;;;-4.79;61.54;103053.14;1759657;81;21093;-91
2022/03/12 03:13:22;;;;;;;76.85;33.53;;;;;;;-4.83;61.43;103060.84;1745440;80;21542;-89
2022/03/12 03:15:54;;;;;;;73.90;33.40;;;;;;;-4.84;61.52;103060.30;1750193;81;21840;-89
2022/03/12 03:18:24;;;;;;;68.02;31.27;;;;;;;-4.85;61.56;103061.02;1758589;81;21109;-88
2022/03/12 03:20:54;;;;;;;66.70;29.82;;;;;;;-4.86;61.30;103063.05;1738543;81;21341;-88
2022/03/12 03:23:22;;;;;;;67.37;31.80;;;;;;;-4.89;61.04;103057.14;1736922;81;21089;-88
2022/03/12 03:25:49;;;;;;;68.65;31.30;;;;;;;-4.92;60.92;103058.41;1752722;80;21658;-90
2022/03/12 03:28:16;;;;;;;74.58;31.33;;;;;;;-4.94;60.87;103059.50;1743218;81;22519;-86
2022/03/12 03:30:42;;;;;;;69.42;32.17;;;;;;;-4.95;60.96;103054.20;1716651;81;21065;-88
2022/03/12 03:33:13;;;;;;;78.55;34.25;;;;;;;-4.96;61.00;103057.11;1749990;81;21072;-91
2022/03/12 03:35:39;;;;;;;76.15;32.48;;;;;;;-4.92;61.12;103058.07;1744315;81;21117;-93
2022/03/12 03:38:07;;;;;;;69.82;33.20;;;;;;;-4.90;61.22;103054.03;1735617;81;21622;-92
2022/03/12 03:40:34;;;;;;;71.75;31.95;;;;;;;-4.87;61.34;103048.34;1737993;81;21738;-95
2022/03/12 03:43:00;;;;;;;79.17;32.95;;;;;;;-4.86;61.26;103056.63;1751635;78;21148;-93
2022/03/12 03:45:29;;;;;;;80.15;34.63;;;;;;;-4.85;61.29;103045.97;1744661;81;21062;-90
2022/03/12 03:47:56;;;;;;;76.22;35.15;;;;;;;-4.84;61.34;103052.59;1753951;81;21046;-91
2022/03/12 03:50:25;;;;;;;81.60;36.08;;;;;;;-4.84;61.32;103051.64;1750356;81;21748;-88
2022/03/12 03:52:58;;;;;;;75.15;34.27;;;;;;;-4.86;61.27;103044.13;1747827;81;21771;-90
2022/03/12 03:55:28;;;;;;;85.17;35.60;;;;;;;-4.89;61.26;103053.29;1754169;79;23492;-90
2022/03/12 03:57:55;;;;;;;84.65;35.00;;;;;;;-4.95;61.23;103053.83;1747213;80;21285;-89
2022/03/12 04:00:22;;;;;;;84.40;36.17;;;;;;;-4.96;61.32;103058.39;1737058;81;21077;-87
2022/03/12 04:03:01;;;;;;;88.97;37.65;;;;;;;-4.98;61.32;103049.58;1755076;81;21081;-90
2022/03/12 04:05:22;;;;;;;82.67;37.78;;;;;;;-5.00;61.43;103047.19;1730530;81;21876;-87
2022/03/12 04:07:49;;;;;;;88.25;39.40;;;;;;;-5.00;61.47;103048.84;1743810;81;21024;-87
2022/03/12 04:10:16;;;;;;;91.63;36.90;;;;;;;-5.02;61.50;103052.88;1749373;81;21033;-88
2022/03/12 04:12:42;;;;;;;89.10;38.50;;;;;;;-5.10;61.47;103051.55;1719463;81;21387;-90
2022/03/12 04:15:10;;;;;;;88.07;40.08;;;;;;;-5.16;61.58;103050.80;1754409;80;21062;-90
2022/03/12 04:17:37;;;;;;;89.05;40.30;;;;;;;-5.22;61.75;103041.02;1763477;81;21770;-88
2022/03/12 04:20:05;;;;;;;89.17;38.02;;;;;;;-5.23;61.86;103049.84;1747237;81;21152;-91
2022/03/12 04:22:32;;;;;;;88.80;39.95;;;;;;;-5.29;61.88;103050.00;1736667;81;21581;-90
2022/03/12 04:24:59;;;;;;;112.42;43.83;;;;;;;-5.38;61.93;103040.77;1760660;80;21486;-89
2022/03/12 04:27:26;;;;;;;136.55;47.75;;;;;;;-5.37;61.95;103047.72;1745206;81;21646;-88
2022/03/12 04:29:53;;;;;;;139.55;47.85;;;;;;;-5.40;62.07;103048.64;1755406;81;21761;-87
2022/03/12 04:32:20;;;;;;;144.70;51.92;;;;;;;-5.41;62.14;103048.45;1749404;80;21054;-91
2022/03/12 04:34:46;;;;;;;147.10;55.55;;;;;;;-5.42;62.24;103042.41;1725851;81;21044;-92
2022/03/12 04:37:13;;;;;;;146.65;56.33;;;;;;;-5.43;62.28;103045.68;1745314;81;21601;-90
2022/03/12 04:39:40;;;;;;;142.03;54.55;;;;;;;-5.44;62.34;103043.86;1749629;81;21053;-90
2022/03/12 04:42:08;;;;;;;137.72;53.13;;;;;;;-5.45;62.36;103043.28;1746959;81;21708;-94
2022/03/12 04:44:38;;;;;;;113.68;47.53;;;;;;;-5.46;62.42;103049.16;1735170;82;21085;-94
2022/03/12 04:47:10;;;;;;;123.47;48.73;;;;;;;-5.50;62.34;103045.62;1757585;79;79420;-83
2022/03/12 04:49:37;;;;;;;117.95;48.40;;;;;;;-5.52;62.44;103042.90;1806707;77;21559;-83
2022/03/12 04:52:04;;;;;;;116.77;48.68;;;;;;;-5.51;62.48;103043.80;1807415;77;20983;-83
2022/03/12 04:54:32;;;;;;;113.32;49.58;;;;;;;-5.53;62.45;103043.61;1800471;77;21787;-83
2022/03/12 04:56:58;;;;;;;119.28;55.63;;;;;;;-5.52;62.58;103041.95;1807242;77;21082;-83
2022/03/12 04:59:25;;;;;;;128.32;61.75;;;;;;;-5.52;62.55;103042.90;1771411;79;21529;-83
2022/03/12 05:01:52;;;;;;;138.57;64.77;;;;;;;-5.51;62.62;103040.87;1776961;79;21038;-82
2022/03/12 05:04:18;;;;;;;137.65;63.78;;;;;;;-5.52;62.64;103035.53;1735034;79;21090;-85
2022/03/12 05:06:45;;;;;;;165.12;73.15;;;;;;;-5.50;62.80;103040.16;1802693;77;22483;-84
2022/03/12 05:09:12;;;;;;;170.62;81.80;;;;;;;-5.46;62.80;103044.03;1773991;79;21660;-84
2022/03/12 05:11:38;;;;;;;173.62;78.85;;;;;;;-5.45;62.76;103044.56;1817962;77;21069;-84
2022/03/12 05:14:06;;;;;;;170.30;79.97;;;;;;;-5.45;62.80;103047.52;1810395;77;21406;-84
2022/03/12 05:16:35;;;;;;;144.15;70.45;;;;;;;-5.42;62.85;103046.25;1825173;77;21032;-83
2022/03/12 05:19:01;;;;;;;144.93;69.58;;;;;;;-5.39;62.85;103046.61;1778033;79;21703;-82
2022/03/12 05:21:28;;;;;;;132.78;63.02;;;;;;;-5.34;62.88;103051.97;1780778;79;21408;-80
2022/03/12 05:23:54;;;;;;;131.00;61.60;;;;;;;-5.29;62.84;103061.55;1779247;79;21622;-81
2022/03/12 05:26:22;;;;;;;121.30;57.98;;;;;;;-5.28;62.80;103065.94;1777850;80;21544;-81
2022/03/12 05:29:12;;;;;;;112.25;54.00;;;;;;;-5.24;62.76;103065.96;1785590;78;21068;-90
2022/03/12 05:32:01;;;;;;;112.65;50.58;;;;;;;-5.22;62.74;103058.99;1797295;78;22419;-89
2022/03/12 05:35:02;;;;;;;99.07;47.08;;;;;;;-5.18;62.69;103059.96;1624019;86;21084;-89
2022/03/12 05:38:01;;;;;;;97.65;44.30;;;;;;;-5.11;62.73;103065.48;1594823;88;21150;-89
2022/03/12 05:40:28;;;;;;;97.67;43.85;;;;;;;-5.03;62.69;103065.15;1582576;88;21500;-88
2022/03/12 05:43:10;;;;;;;97.50;43.42;;;;;;;-4.96;62.62;103064.81;1565954;90;21074;-91
2022/03/12 05:45:34;;;;;;;98.33;45.38;;;;;;;-4.90;62.54;103066.88;1575542;88;21787;-92
2022/03/12 05:48:04;;;;;;;135.00;55.45;;;;;;;-4.86;62.47;103063.39;1529867;91;22216;-93
2022/03/12 05:50:37;;;;;;;108.85;47.78;;;;;;;-4.80;62.42;103060.31;1530572;92;21086;-93
2022/03/12 05:53:09;;;;;;;112.03;48.23;;;;;;;-4.73;62.45;103065.11;1509244;92;21103;-86
2022/03/12 05:55:35;;;;;;;100.25;44.10;;;;;;;-4.66;62.38;103058.15;1550657;90;21123;-86
2022/03/12 05:58:02;;;;;;;93.78;42.48;;;;;;;-4.59;62.36;103052.66;1544378;91;21800;-93
2022/03/12 06:00:29;;;;;;;82.42;38.17;;;;;;;-4.46;62.40;103050.32;1546347;91;21787;-91
2022/03/12 06:02:58;;;;;;;79.67;36.48;;;;;;;-4.37;62.36;103055.30;1544896;92;21117;-91
2022/03/12 06:05:24;;;;;;;80.77;37.13;;;;;;;-4.23;62.60;103047.58;1548899;89;21280;-93
2022/03/12 06:07:53;;;;;;;85.53;38.23;;;;;;;-4.08;62.37;103054.04;1612462;87;21202;-94
2022/03/12 06:10:24;;;;;;;73.65;35.43;;;;;;;-3.97;62.24;103053.68;1616180;87;21787;-94
2022/03/12 06:12:56;;;;;;;78.57;37.40;;;;;;;-3.87;62.12;103050.55;1676979;84;21588;-94
2022/03/12 06:15:42;;;;;;;84.47;36.43;;;;;;;-3.78;62.01;103051.27;1713034;80;21023;-93
2022/03/12 06:27:12;;;;;;;;;;;;;;;;;;;;;
2022/03/12 06:37:21;;;;;;;;;;;;;;;;;;;;;
2022/03/12 06:52:09;;;;;;;78.60;36.28;;;;;;;-2.49;60.94;103015.14;1401193;99;21679;-91
2022/03/12 06:54:36;;;;;;;91.22;42.27;;;;;;;-2.32;60.71;103012.27;1397752;101;21636;-87
2022/03/12 06:57:06;;;;;;;137.03;59.25;;;;;;;-2.18;60.54;103015.66;1405907;101;21466;-89
2022/03/12 06:59:33;;;;;;;141.60;59.23;;;;;;;-2.04;60.37;103015.00;1437737;96;21857;-89
2022/03/12 07:02:00;;;;;;;191.95;79.60;;;;;;;-1.95;60.10;103018.61;1517020;92;21157;-88
2022/03/12 07:04:26;;;;;;;189.80;74.65;;;;;;;-1.84;59.85;103018.49;1555944;90;21580;-85
2022/03/12 07:06:53;;;;;;;114.37;48.50;;;;;;;-1.72;59.64;103019.87;1560933;89;21236;-84
2022/03/12 07:09:20;;;;;;;98.20;41.53;;;;;;;-1.60;59.47;103022.50;1573963;89;21088;-85
2022/03/12 07:12:03;;;;;;;126.65;54.23;;;;;;;-1.48;59.21;103024.24;1574567;89;21872;-86
2022/03/12 07:15:24;;;;;;;88.62;41.45;;;;;;;-1.34;59.07;103026.13;1496649;94;21146;-87
2022/03/12 07:17:54;;;;;;;63.00;32.00;;;;;;;-1.21;58.87;103030.59;1514303;94;21140;-86
2022/03/12 07:20:21;;;;;;;69.07;33.30;;;;;;;-1.06;58.64;103023.20;1515479;92;21147;-85
2022/03/12 07:22:48;;;;;;;66.25;31.77;;;;;;;-0.94;58.54;103023.59;1537375;91;21117;-86
2022/03/12 07:25:15;;;;;;;75.92;33.25;;;;;;;-0.81;58.33;103019.37;1525504;90;21778;-82
2022/03/12 07:27:42;;;;;;;59.48;29.32;;;;;;;-0.71;58.18;103010.92;1564096;90;21173;-81
2022/03/12 07:30:10;;;;;;;70.62;29.80;;;;;;;-0.60;58.02;103013.02;1552444;90;21139;-81
2022/03/12 07:32:39;;;;;;;72.92;35.05;;;;;;;-0.48;57.80;103018.56;1563502;90;21531;-86
2022/03/12 07:35:11;;;;;;;64.58;32.33;;;;;;;-0.36;57.67;103013.75;1550145;90;21161;-87
2022/03/12 07:37:40;;;;;;;63.70;27.52;;;;;;;-0.29;57.46;103005.89;1521139;92;21714;-89
2022/03/12 07:40:10;;;;;;;64.35;29.23;;;;;;;-0.16;57.32;103004.20;1549191;91;21605;-88
2022/03/12 07:42:37;;;;;;;78.65;35.35;;;;;;;-0.05;56.94;103003.27;1545128;92;21116;-87
2022/03/12 07:45:08;;;;;;;49.15;24.72;;;;;;;0.05;56.72;102997.75;1547223;91;21433;-85
2022/03/12 07:47:34;;;;;;;53.52;27.58;;;;;;;0.15;56.59;102994.04;1557176;90;21157;-86
2022/03/12 07:50:10;;;;;;;56.35;25.68;;;;;;;0.26;56.29;102997.74;1545341;91;21884;-87
2022/03/12 07:53:15;;;;;;;51.90;24.60;;;;;;;0.36;56.09;102991.47;1616871;85;21125;-88
2022/03/12 07:56:17;;;;;;;48.52;22.55;;;;;;;0.46;55.77;102995.52;1639024;85;21137;-87
2022/03/12 07:58:44;;;;;;;47.83;24.82;;;;;;;0.58;55.65;102990.65;1649194;85;21660;-86
2022/03/12 08:01:10;;;;;;;48.30;23.50;;;;;;;0.68;55.50;102991.23;1644950;85;21144;-85
2022/03/12 08:03:37;;;;;;;42.55;23.18;;;;;;;0.75;55.28;102985.52;1642540;85;22573;-85
2022/03/12 08:06:05;;;;;;;45.73;24.37;;;;;;;0.84;55.11;102975.13;1640720;85;21089;-86
2022/03/12 08:08:33;;;;;;;47.45;23.83;;;;;;;0.93;55.01;102977.34;1634941;85;21162;-88
2022/03/12 08:14:01;;;;;;;;;;;;;;;;;;;;;
2022/03/12 08:16:25;;;;;;;47.27;21.68;;;;;;;1.29;54.54;102971.36;1641235;85;21797;-85
2022/03/12 08:18:51;;;;;;;40.10;19.77;;;;;;;1.41;54.24;102972.03;1603654;87;21045;-85
2022/03/12 08:21:19;;;;;;;48.38;19.62;;;;;;;1.52;53.79;102970.09;1613131;87;21131;-86
2022/03/12 08:23:47;;;;;;;38.20;19.32;;;;;;;1.62;53.74;102966.73;1557136;90;21171;-85
2022/03/12 08:26:14;;;;;;;35.98;18.25;;;;;;;1.74;53.40;102964.91;1561343;90;21171;-86
2022/03/12 08:28:40;;;;;;;34.20;17.98;;;;;;;1.86;52.79;102961.30;1561309;90;21797;-86
2022/03/12 08:31:07;;;;;;;32.80;17.15;;;;;;;1.99;52.50;102959.86;1571556;90;21201;-85
2022/03/12 08:33:36;;;;;;;35.78;16.62;;;;;;;2.09;52.25;102959.58;1613063;86;21155;-86
2022/03/12 08:36:05;;;;;;;34.30;17.80;;;;;;;2.21;51.91;102955.02;1648786;85;21563;-86
2022/03/12 08:38:34;;;;;;;30.45;15.93;;;;;;;2.32;51.67;102955.64;1654652;85;21171;-86
2022/03/12 08:41:02;;;;;;;29.63;15.98;;;;;;;2.43;51.35;102960.55;1655252;85;21781;-86
2022/03/12 08:43:29;;;;;;;25.62;14.10;;;;;;;2.54;51.01;102955.96;1659373;85;21118;-87
2022/03/12 08:45:59;;;;;;;31.33;16.23;;;;;;;2.65;50.51;102958.27;1696709;80;21191;-86
2022/03/12 08:48:24;;;;;;;31.80;15.00;;;;;;;2.75;50.21;102963.53;1737973;81;21224;-86
2022/03/12 08:50:51;;;;;;;28.27;14.83;;;;;;;2.82;50.08;102964.63;1737521;81;21103;-86
2022/03/12 08:53:18;;;;;;;24.43;13.90;;;;;;;2.89;49.74;102956.98;1732880;81;21784;-87
2022/03/12 08:55:45;;;;;;;25.20;14.10;;;;;;;2.91;49.43;102949.86;1725956;79;21566;-87
2022/03/12 08:58:11;;;;;;;27.15;14.95;;;;;;;3.02;49.28;102953.81;1764118;79;21131;-87
2022/03/12 09:00:38;;;;;;;26.93;14.73;;;;;;;3.10;49.16;102952.84;1769438;79;21419;-87
2022/03/12 09:03:07;;;;;;;31.65;15.23;;;;;;;3.17;49.14;102952.98;1759727;79;21084;-87
2022/03/12 09:05:37;;;;;;;29.48;15.68;;;;;;;3.24;49.06;102947.56;1754483;79;21772;-88
2022/03/12 09:08:04;;;;;;;27.60;15.00;;;;;;;3.31;48.82;102950.85;1753233;78;21040;-87
2022/03/12 09:10:33;;;;;;;27.40;14.58;;;;;;;3.42;48.43;102944.41;1758429;80;21540;-87
2022/03/12 09:13:03;;;;;;;30.77;15.10;;;;;;;3.48;48.12;102942.34;1754089;80;21088;-86
2022/03/12 09:15:30;;;;;;;27.00;16.02;;;;;;;3.56;47.90;102945.22;1716796;81;21061;-86
2022/03/12 09:17:57;;;;;;;28.92;16.57;;;;;;;3.63;47.75;102941.48;1751848;80;21914;-86
2022/03/12 09:20:23;;;;;;;29.05;16.90;;;;;;;3.69;47.62;102939.02;1752124;79;21090;-86
2022/03/12 09:22:50;;;;;;;31.60;15.95;;;;;;;3.77;47.44;102936.17;1752867;80;21049;-87
2022/03/12 09:25:17;;;;;;;29.52;17.07;;;;;;;3.87;47.17;102938.42;1754539;79;21131;-86
2022/03/12 09:27:46;;;;;;;28.47;15.18;;;;;;;3.94;47.01;102942.86;1749582;79;21073;-87
2022/03/12 09:30:14;;;;;;;29.32;15.98;;;;;;;4.00;46.77;102943.02;1752232;79;21781;-87
2022/03/12 09:32:41;;;;;;;29.45;15.55;;;;;;;4.07;46.39;102944.08;1725034;80;21046;-88
2022/03/12 09:35:09;;;;;;;34.38;17.77;;;;;;;4.07;46.07;102946.68;1747003;81;21162;-87
2022/03/12 09:37:38;;;;;;;28.30;14.80;;;;;;;4.11;46.21;102943.02;1756661;79;21029;-87
2022/03/12 09:40:22;;;;;;;27.07;14.65;;;;;;;4.18;46.06;102939.77;1754792;79;21061;-87
2022/03/12 09:42:43;;;;;;;25.68;14.53;;;;;;;4.23;45.77;102934.96;1705589;79;22345;-87
2022/03/12 09:45:12;;;;;;;25.97;15.25;;;;;;;4.26;45.66;102927.02;1753577;79;21013;-87
2022/03/12 09:47:40;;;;;;;32.48;16.73;;;;;;;4.30;45.56;102926.89;1730566;80;21096;-87
2022/03/12 09:50:23;;;;;;;25.43;14.05;;;;;;;4.39;45.57;102935.86;1754577;81;21096;-86
2022/03/12 09:52:37;;;;;;;23.55;12.73;;;;;;;4.45;45.38;102932.50;1725931;79;21553;-86
2022/03/12 09:55:05;;;;;;;28.55;14.15;;;;;;;4.51;45.12;102929.09;1751593;80;21743;-85
2022/03/12 09:57:32;;;;;;;22.02;12.50;;;;;;;4.56;44.73;102925.55;1750884;81;21052;-84
2022/03/12 09:59:59;;;;;;;22.82;12.70;;;;;;;4.59;44.37;102928.03;1754825;81;21193;-86
2022/03/12 10:02:29;;;;;;;22.32;12.75;;;;;;;4.59;44.32;102918.91;1746317;81;21060;-86
2022/03/12 10:04:55;;;;;;;21.95;12.73;;;;;;;4.62;44.26;102917.87;1752791;81;21058;-86
2022/03/12 10:07:23;;;;;;;20.52;11.08;;;;;;;4.68;44.08;102919.67;1754762;81;21760;-85
2022/03/12 10:09:50;;;;;;;21.80;14.38;;;;;;;4.74;43.95;102912.75;1762555;80;21097;-86
2022/03/12 10:12:19;;;;;;;25.35;12.58;;;;;;;4.79;43.74;102913.16;1754185;81;21081;-86
2022/03/12 10:14:49;;;;;;;20.05;11.53;;;;;;;4.84;43.68;102914.42;1754026;81;21120;-86
2022/03/12 10:17:19;;;;;;;20.32;12.05;;;;;;;4.91;43.53;102912.84;1749140;81;21021;-86
2022/03/12 10:19:46;;;;;;;23.20;13.03;;;;;;;4.97;43.33;102910.73;1753841;81;21560;-85
2022/03/12 10:22:14;;;;;;;20.35;11.75;;;;;;;5.04;43.22;102914.77;1752076;81;20994;-86
2022/03/12 10:24:41;;;;;;;19.80;11.40;;;;;;;5.10;43.03;102911.35;1753090;81;21560;-87
2022/03/12 10:27:08;;;;;;;25.62;12.73;;;;;;;5.20;42.87;102916.55;1754575;81;21076;-85
2022/03/12 10:29:35;;;;;;;20.62;12.18;;;;;;;5.26;42.67;102914.44;1753892;81;21531;-85
2022/03/12 10:32:26;;;;;;;18.95;10.90;;;;;;;5.32;42.41;102914.42;1776719;79;21680;-87
2022/03/12 10:34:59;;;;;;;16.80;10.10;;;;;;;5.35;42.13;102914.28;1715501;82;21070;-85
2022/03/12 10:37:25;;;;;;;20.15;12.70;;;;;;;5.44;41.80;102911.48;1741373;80;21117;-85
2022/03/12 10:40:16;;;;;;;21.57;10.88;;;;;;;5.50;41.39;102917.59;1759216;80;21678;-85
2022/03/12 10:42:57;;;;;;;20.62;13.00;;;;;;;5.51;41.31;102903.35;1716156;81;22228;-85
2022/03/12 10:45:29;;;;;;;19.77;10.90;;;;;;;5.54;41.24;102893.56;1738552;82;21030;-86
2022/03/12 10:47:57;;;;;;;28.38;11.53;;;;;;;5.62;41.07;102888.55;1767897;81;21675;-87
2022/03/12 10:50:34;;;;;;;20.85;11.73;;;;;;;5.68;41.17;102897.27;1707997;82;21556;-86
2022/03/12 10:53:05;;;;;;;18.35;11.22;;;;;;;5.71;41.13;102892.29;1744462;82;21123;-85
2022/03/12 10:55:30;;;;;;;17.10;10.35;;;;;;;5.76;40.62;102895.78;1772784;79;21062;-86
2022/03/12 10:58:16;;;;;;;19.92;11.48;;;;;;;5.79;40.44;102897.72;1778313;80;21783;-85
2022/03/12 11:00:51;;;;;;;20.05;10.80;;;;;;;5.72;40.53;102878.02;1771748;79;21044;-84
2022/03/12 11:03:23;;;;;;;17.50;10.08;;;;;;;5.88;40.40;102893.22;1803645;78;21057;-85
2022/03/12 11:05:53;;;;;;;19.23;11.53;;;;;;;5.93;40.21;102887.02;1778409;79;21070;-85
2022/03/12 11:08:24;;;;;;;31.80;16.73;;;;;;;5.96;40.16;102888.21;1787070;79;21045;-85
2022/03/12 11:10:58;;;;;;;24.40;13.72;;;;;;;5.99;40.19;102885.84;1786060;79;21822;-85
2022/03/12 11:13:28;;;;;;;26.30;14.50;;;;;;;5.99;40.13;102881.92;1782477;79;21152;-86
2022/03/12 11:16:14;;;;;;;27.20;13.70;;;;;;;5.99;40.00;102878.00;1764725;79;21388;-85
2022/03/12 11:18:58;;;;;;;26.93;14.80;;;;;;;6.01;39.99;102880.75;1786437;79;21053;-86
2022/03/12 11:21:44;;;;;;;28.32;14.98;;;;;;;5.98;39.88;102873.95;1753895;80;22312;-87
2022/03/12 11:24:22;;;;;;;32.20;16.45;;;;;;;6.00;39.97;102876.30;1754798;79;21757;-88
2022/03/12 11:26:56;;;;;;;30.40;16.52;;;;;;;6.02;40.06;102870.41;1777793;79;21128;-85
2022/03/12 11:29:26;;;;;;;26.85;15.13;;;;;;;6.01;40.05;102872.50;1786910;78;21056;-87
2022/03/12 11:31:59;;;;;;;25.20;14.07;;;;;;;6.02;39.98;102869.11;1787043;80;21261;-86
2022/03/12 11:34:41;;;;;;;25.57;14.50;;;;;;;6.09;39.84;102868.27;1804872;78;21077;-87
2022/03/12 11:37:15;;;;;;;23.87;14.60;;;;;;;6.09;39.80;102866.55;1778153;79;22778;-87
2022/03/12 11:39:52;;;;;;;23.65;14.20;;;;;;;6.10;39.79;102864.47;1778042;79;21082;-87
2022/03/12 11:42:25;;;;;;;24.75;14.03;;;;;;;6.16;39.90;102862.31;1694683;83;21846;-87
2022/03/12 11:44:55;;;;;;;24.47;14.35;;;;;;;6.22;39.79;102865.80;1689942;82;21114;-87
2022/03/12 11:47:24;;;;;;;25.60;14.65;;;;;;;6.25;39.71;102858.19;1708873;82;21143;-87
2022/03/12 11:49:55;;;;;;;25.12;14.40;;;;;;;6.28;39.76;102857.50;1711307;82;22538;-86
2022/03/12 11:52:20;;;;;;;27.27;15.18;;;;;;;6.29;39.64;102856.32;1708565;82;21140;-87
2022/03/12 11:54:47;;;;;;;26.10;15.55;;;;;;;6.26;39.39;102853.46;1669661;83;21112;-87
2022/03/12 11:57:27;;;;;;;29.63;15.08;;;;;;;6.25;39.50;102850.72;1712561;82;21465;-87